sensor_id;sensor_type;location;lat;lon;timestamp;P1;durP1;ratioP1;P2;durP2;ratioP2
26951;SDS011;14507;52.418;13.398;2022-07-19T00:01:43;9.93;;;5.22;;
26951;SDS011;14507;52.418;13.398;2022-07-19T00:04:08;8.95;;;5.13;;
26951;SDS011;14507;52.418;13.398;2022-07-19T00:06:34;9.80;;;5.13;;
26951;SDS011;14507;52.418;13.398;2022-07-19T00:09:00;9.32;;;5.00;;
26951;SDS011;14507;52.418;13.398;2022-07-19T00:11:25;9.45;;;5.38;;
26951;SDS011;14507;52.418;13.398;2022-07-19T00:13:51;10.68;;;5.18;;
26951;SDS011;14507;52.418;13.398;2022-07-19T00:16:17;10.75;;;5.88;;
26951;SDS011;14507;52.418;13.398;2022-07-19T00:18:44;10.45;;;5.05;;
26951;SDS011;14507;52.418;13.398;2022-07-19T00:21:10;11.95;;;4.90;;
26951;SDS011;14507;52.418;13.398;2022-07-19T00:23:36;8.93;;;4.60;;
26951;SDS011;14507;52.418;13.398;2022-07-19T00:26:02;9.98;;;5.80;;
26951;SDS011;14507;52.418;13.398;2022-07-19T00:28:28;10.85;;;5.20;;
26951;SDS011;14507;52.418;13.398;2022-07-19T00:30:54;9.57;;;5.43;;
26951;SDS011;14507;52.418;13.398;2022-07-19T00:33:19;10.65;;;5.25;;
26951;SDS011;14507;52.418;13.398;2022-07-19T00:35:45;9.25;;;5.53;;
26951;SDS011;14507;52.418;13.398;2022-07-19T00:38:11;8.90;;;4.78;;
26951;SDS011;14507;52.418;13.398;2022-07-19T00:40:38;11.77;;;6.32;;
26951;SDS011;14507;52.418;13.398;2022-07-19T00:43:06;8.95;;;4.93;;
26951;SDS011;14507;52.418;13.398;2022-07-19T00:45:32;10.70;;;5.28;;
26951;SDS011;14507;52.418;13.398;2022-07-19T00:47:58;8.63;;;4.47;;
26951;SDS011;14507;52.418;13.398;2022-07-19T00:50:24;11.18;;;5.05;;
26951;SDS011;14507;52.418;13.398;2022-07-19T00:52:51;11.07;;;5.35;;
26951;SDS011;14507;52.418;13.398;2022-07-19T00:55:19;10.10;;;4.97;;
26951;SDS011;14507;52.418;13.398;2022-07-19T00:57:45;12.50;;;4.90;;
26951;SDS011;14507;52.418;13.398;2022-07-19T01:00:12;8.98;;;4.63;;
26951;SDS011;14507;52.418;13.398;2022-07-19T01:02:40;10.52;;;5.13;;
26951;SDS011;14507;52.418;13.398;2022-07-19T01:05:06;11.23;;;4.72;;
26951;SDS011;14507;52.418;13.398;2022-07-19T01:07:33;10.20;;;5.30;;
26951;SDS011;14507;52.418;13.398;2022-07-19T01:10:05;7.88;;;4.53;;
26951;SDS011;14507;52.418;13.398;2022-07-19T01:12:32;12.85;;;5.25;;
26951;SDS011;14507;52.418;13.398;2022-07-19T01:14:59;9.65;;;4.95;;
26951;SDS011;14507;52.418;13.398;2022-07-19T01:17:26;9.35;;;4.72;;
26951;SDS011;14507;52.418;13.398;2022-07-19T01:19:52;9.80;;;4.80;;
26951;SDS011;14507;52.418;13.398;2022-07-19T01:22:18;12.55;;;6.10;;
26951;SDS011;14507;52.418;13.398;2022-07-19T01:24:44;13.85;;;5.63;;
26951;SDS011;14507;52.418;13.398;2022-07-19T01:27:09;11.30;;;5.68;;
26951;SDS011;14507;52.418;13.398;2022-07-19T01:29:35;8.48;;;5.03;;
26951;SDS011;14507;52.418;13.398;2022-07-19T01:32:01;7.88;;;4.75;;
26951;SDS011;14507;52.418;13.398;2022-07-19T01:34:28;8.57;;;5.15;;
26951;SDS011;14507;52.418;13.398;2022-07-19T01:36:53;10.80;;;4.43;;
26951;SDS011;14507;52.418;13.398;2022-07-19T01:39:19;9.90;;;4.93;;
26951;SDS011;14507;52.418;13.398;2022-07-19T01:41:45;11.02;;;5.28;;
26951;SDS011;14507;52.418;13.398;2022-07-19T01:44:11;9.65;;;4.75;;
26951;SDS011;14507;52.418;13.398;2022-07-19T01:46:36;8.80;;;5.05;;
26951;SDS011;14507;52.418;13.398;2022-07-19T01:49:02;11.70;;;5.10;;
26951;SDS011;14507;52.418;13.398;2022-07-19T01:51:28;11.32;;;5.22;;
26951;SDS011;14507;52.418;13.398;2022-07-19T01:53:53;8.18;;;4.40;;
26951;SDS011;14507;52.418;13.398;2022-07-19T01:56:19;7.85;;;4.82;;
26951;SDS011;14507;52.418;13.398;2022-07-19T01:58:45;8.25;;;4.50;;
26951;SDS011;14507;52.418;13.398;2022-07-19T02:01:11;11.38;;;5.30;;
26951;SDS011;14507;52.418;13.398;2022-07-19T02:03:36;8.10;;;4.07;;
26951;SDS011;14507;52.418;13.398;2022-07-19T02:06:02;11.43;;;5.32;;
26951;SDS011;14507;52.418;13.398;2022-07-19T02:08:27;10.75;;;5.18;;
26951;SDS011;14507;52.418;13.398;2022-07-19T02:10:53;8.90;;;4.78;;
26951;SDS011;14507;52.418;13.398;2022-07-19T02:13:19;10.57;;;4.82;;
26951;SDS011;14507;52.418;13.398;2022-07-19T02:15:44;11.40;;;4.90;;
26951;SDS011;14507;52.418;13.398;2022-07-19T02:18:11;7.53;;;4.70;;
26951;SDS011;14507;52.418;13.398;2022-07-19T02:20:36;10.85;;;5.10;;
26951;SDS011;14507;52.418;13.398;2022-07-19T02:23:02;12.93;;;5.43;;
26951;SDS011;14507;52.418;13.398;2022-07-19T02:25:28;10.77;;;5.30;;
26951;SDS011;14507;52.418;13.398;2022-07-19T02:27:53;9.75;;;4.95;;
26951;SDS011;14507;52.418;13.398;2022-07-19T02:30:19;10.18;;;4.90;;
26951;SDS011;14507;52.418;13.398;2022-07-19T02:32:45;13.00;;;5.35;;
26951;SDS011;14507;52.418;13.398;2022-07-19T02:35:10;10.50;;;5.30;;
26951;SDS011;14507;52.418;13.398;2022-07-19T02:37:38;9.10;;;4.82;;
26951;SDS011;14507;52.418;13.398;2022-07-19T02:40:05;13.10;;;5.55;;
26951;SDS011;14507;52.418;13.398;2022-07-19T02:42:31;12.32;;;5.13;;
26951;SDS011;14507;52.418;13.398;2022-07-19T02:44:56;9.02;;;5.25;;
26951;SDS011;14507;52.418;13.398;2022-07-19T02:47:22;9.13;;;4.85;;
26951;SDS011;14507;52.418;13.398;2022-07-19T02:49:48;11.95;;;5.35;;
26951;SDS011;14507;52.418;13.398;2022-07-19T02:52:13;11.43;;;5.15;;
26951;SDS011;14507;52.418;13.398;2022-07-19T02:54:39;9.98;;;5.30;;
26951;SDS011;14507;52.418;13.398;2022-07-19T02:57:04;7.75;;;4.78;;
26951;SDS011;14507;52.418;13.398;2022-07-19T02:59:30;9.98;;;5.53;;
26951;SDS011;14507;52.418;13.398;2022-07-19T03:01:56;10.52;;;5.07;;
26951;SDS011;14507;52.418;13.398;2022-07-19T03:04:21;10.65;;;5.35;;
26951;SDS011;14507;52.418;13.398;2022-07-19T03:06:47;9.52;;;5.78;;
26951;SDS011;14507;52.418;13.398;2022-07-19T03:09:12;11.15;;;5.30;;
26951;SDS011;14507;52.418;13.398;2022-07-19T03:11:38;10.57;;;5.32;;
26951;SDS011;14507;52.418;13.398;2022-07-19T03:14:04;10.27;;;5.65;;
26951;SDS011;14507;52.418;13.398;2022-07-19T03:16:30;12.23;;;5.47;;
26951;SDS011;14507;52.418;13.398;2022-07-19T03:18:55;11.63;;;5.25;;
26951;SDS011;14507;52.418;13.398;2022-07-19T03:21:21;11.60;;;5.22;;
26951;SDS011;14507;52.418;13.398;2022-07-19T03:23:47;11.32;;;4.85;;
26951;SDS011;14507;52.418;13.398;2022-07-19T03:26:12;8.38;;;5.18;;
26951;SDS011;14507;52.418;13.398;2022-07-19T03:28:38;11.02;;;5.63;;
26951;SDS011;14507;52.418;13.398;2022-07-19T03:31:04;10.35;;;4.63;;
26951;SDS011;14507;52.418;13.398;2022-07-19T03:33:29;10.63;;;5.13;;
26951;SDS011;14507;52.418;13.398;2022-07-19T03:35:55;11.43;;;5.30;;
26951;SDS011;14507;52.418;13.398;2022-07-19T03:38:21;11.63;;;5.47;;
26951;SDS011;14507;52.418;13.398;2022-07-19T03:40:46;12.05;;;5.20;;
26951;SDS011;14507;52.418;13.398;2022-07-19T03:43:13;12.82;;;5.40;;
26951;SDS011;14507;52.418;13.398;2022-07-19T03:45:40;12.52;;;5.13;;
26951;SDS011;14507;52.418;13.398;2022-07-19T03:48:06;13.73;;;5.60;;
26951;SDS011;14507;52.418;13.398;2022-07-19T03:50:32;10.65;;;5.28;;
26951;SDS011;14507;52.418;13.398;2022-07-19T03:52:57;10.48;;;5.38;;
26951;SDS011;14507;52.418;13.398;2022-07-19T03:55:23;12.98;;;5.53;;
26951;SDS011;14507;52.418;13.398;2022-07-19T03:57:49;9.95;;;5.03;;
26951;SDS011;14507;52.418;13.398;2022-07-19T04:00:15;10.90;;;5.10;;
26951;SDS011;14507;52.418;13.398;2022-07-19T04:02:41;14.77;;;6.40;;
26951;SDS011;14507;52.418;13.398;2022-07-19T04:05:07;9.52;;;5.47;;
26951;SDS011;14507;52.418;13.398;2022-07-19T04:07:33;10.60;;;5.32;;
26951;SDS011;14507;52.418;13.398;2022-07-19T04:09:58;10.00;;;4.90;;
26951;SDS011;14507;52.418;13.398;2022-07-19T04:12:24;8.65;;;4.93;;
26951;SDS011;14507;52.418;13.398;2022-07-19T04:14:50;11.52;;;5.13;;
26951;SDS011;14507;52.418;13.398;2022-07-19T04:17:16;10.88;;;5.13;;
26951;SDS011;14507;52.418;13.398;2022-07-19T04:19:42;11.02;;;5.00;;
26951;SDS011;14507;52.418;13.398;2022-07-19T04:22:07;13.50;;;5.65;;
26951;SDS011;14507;52.418;13.398;2022-07-19T04:24:33;10.82;;;5.57;;
26951;SDS011;14507;52.418;13.398;2022-07-19T04:26:59;9.93;;;5.05;;
26951;SDS011;14507;52.418;13.398;2022-07-19T04:29:25;10.80;;;4.80;;
26951;SDS011;14507;52.418;13.398;2022-07-19T04:31:50;10.82;;;5.53;;
26951;SDS011;14507;52.418;13.398;2022-07-19T04:34:16;13.50;;;5.53;;
26951;SDS011;14507;52.418;13.398;2022-07-19T04:36:41;10.65;;;5.28;;
26951;SDS011;14507;52.418;13.398;2022-07-19T04:39:07;15.43;;;5.15;;
26951;SDS011;14507;52.418;13.398;2022-07-19T04:41:32;8.40;;;4.35;;
26951;SDS011;14507;52.418;13.398;2022-07-19T04:43:58;8.50;;;4.68;;
26951;SDS011;14507;52.418;13.398;2022-07-19T04:46:23;12.10;;;5.40;;
26951;SDS011;14507;52.418;13.398;2022-07-19T04:48:49;9.02;;;4.72;;
26951;SDS011;14507;52.418;13.398;2022-07-19T04:51:15;12.43;;;4.95;;
26951;SDS011;14507;52.418;13.398;2022-07-19T04:53:40;10.73;;;4.85;;
26951;SDS011;14507;52.418;13.398;2022-07-19T04:56:06;13.52;;;5.22;;
26951;SDS011;14507;52.418;13.398;2022-07-19T04:58:32;11.90;;;5.22;;
26951;SDS011;14507;52.418;13.398;2022-07-19T05:00:57;8.63;;;5.20;;
26951;SDS011;14507;52.418;13.398;2022-07-19T05:03:23;9.50;;;4.32;;
26951;SDS011;14507;52.418;13.398;2022-07-19T05:05:48;9.48;;;4.45;;
26951;SDS011;14507;52.418;13.398;2022-07-19T05:08:14;12.10;;;4.63;;
26951;SDS011;14507;52.418;13.398;2022-07-19T05:10:40;9.35;;;4.93;;
26951;SDS011;14507;52.418;13.398;2022-07-19T05:13:05;15.98;;;4.72;;
26951;SDS011;14507;52.418;13.398;2022-07-19T05:15:31;10.35;;;4.35;;
26951;SDS011;14507;52.418;13.398;2022-07-19T05:17:57;8.48;;;4.30;;
26951;SDS011;14507;52.418;13.398;2022-07-19T05:20:22;10.80;;;4.65;;
26951;SDS011;14507;52.418;13.398;2022-07-19T05:22:48;15.75;;;4.70;;
26951;SDS011;14507;52.418;13.398;2022-07-19T05:25:14;13.50;;;3.97;;
26951;SDS011;14507;52.418;13.398;2022-07-19T05:27:41;8.48;;;4.00;;
26951;SDS011;14507;52.418;13.398;2022-07-19T05:30:08;11.52;;;4.13;;
26951;SDS011;14507;52.418;13.398;2022-07-19T05:32:34;9.82;;;3.83;;
26951;SDS011;14507;52.418;13.398;2022-07-19T05:35:00;8.52;;;4.00;;
26951;SDS011;14507;52.418;13.398;2022-07-19T05:37:26;10.35;;;3.55;;
26951;SDS011;14507;52.418;13.398;2022-07-19T05:39:53;8.93;;;4.00;;
26951;SDS011;14507;52.418;13.398;2022-07-19T05:42:18;6.85;;;3.42;;
26951;SDS011;14507;52.418;13.398;2022-07-19T05:44:44;5.10;;;2.92;;
26951;SDS011;14507;52.418;13.398;2022-07-19T05:47:09;12.43;;;3.10;;
26951;SDS011;14507;52.418;13.398;2022-07-19T05:49:35;7.75;;;3.05;;
26951;SDS011;14507;52.418;13.398;2022-07-19T05:52:01;9.60;;;3.65;;
26951;SDS011;14507;52.418;13.398;2022-07-19T05:54:26;10.05;;;3.80;;
26951;SDS011;14507;52.418;13.398;2022-07-19T05:56:52;11.85;;;3.83;;
26951;SDS011;14507;52.418;13.398;2022-07-19T05:59:18;8.40;;;3.33;;
26951;SDS011;14507;52.418;13.398;2022-07-19T06:04:11;12.63;;;3.90;;
26951;SDS011;14507;52.418;13.398;2022-07-19T06:06:37;10.05;;;3.80;;
26951;SDS011;14507;52.418;13.398;2022-07-19T06:09:03;11.05;;;3.53;;
26951;SDS011;14507;52.418;13.398;2022-07-19T06:11:30;11.70;;;4.10;;
26951;SDS011;14507;52.418;13.398;2022-07-19T06:13:55;7.90;;;2.88;;
26951;SDS011;14507;52.418;13.398;2022-07-19T06:16:22;10.18;;;2.83;;
26951;SDS011;14507;52.418;13.398;2022-07-19T06:18:47;9.38;;;2.97;;
26951;SDS011;14507;52.418;13.398;2022-07-19T06:21:14;6.15;;;2.70;;
26951;SDS011;14507;52.418;13.398;2022-07-19T06:23:42;9.13;;;2.75;;
26951;SDS011;14507;52.418;13.398;2022-07-19T06:26:09;8.25;;;3.20;;
26951;SDS011;14507;52.418;13.398;2022-07-19T06:28:35;5.82;;;2.72;;
26951;SDS011;14507;52.418;13.398;2022-07-19T06:31:01;9.82;;;3.25;;
26951;SDS011;14507;52.418;13.398;2022-07-19T06:33:26;10.65;;;2.65;;
26951;SDS011;14507;52.418;13.398;2022-07-19T06:35:52;7.07;;;2.40;;
26951;SDS011;14507;52.418;13.398;2022-07-19T06:38:18;8.10;;;2.50;;
26951;SDS011;14507;52.418;13.398;2022-07-19T06:40:44;6.20;;;2.47;;
26951;SDS011;14507;52.418;13.398;2022-07-19T06:43:10;7.03;;;2.22;;
26951;SDS011;14507;52.418;13.398;2022-07-19T06:45:36;7.35;;;2.38;;
26951;SDS011;14507;52.418;13.398;2022-07-19T06:48:02;6.00;;;1.92;;
26951;SDS011;14507;52.418;13.398;2022-07-19T06:50:27;5.32;;;2.83;;
26951;SDS011;14507;52.418;13.398;2022-07-19T06:52:53;5.43;;;2.35;;
26951;SDS011;14507;52.418;13.398;2022-07-19T06:55:19;9.80;;;2.30;;
26951;SDS011;14507;52.418;13.398;2022-07-19T06:57:45;7.72;;;2.33;;
26951;SDS011;14507;52.418;13.398;2022-07-19T07:00:11;14.85;;;2.50;;
26951;SDS011;14507;52.418;13.398;2022-07-19T07:02:38;5.18;;;2.28;;
26951;SDS011;14507;52.418;13.398;2022-07-19T07:05:05;6.47;;;2.70;;
26951;SDS011;14507;52.418;13.398;2022-07-19T07:07:32;15.43;;;2.47;;
26951;SDS011;14507;52.418;13.398;2022-07-19T07:09:58;10.32;;;2.55;;
26951;SDS011;14507;52.418;13.398;2022-07-19T07:12:26;9.95;;;2.75;;
26951;SDS011;14507;52.418;13.398;2022-07-19T07:14:52;6.93;;;2.72;;
26951;SDS011;14507;52.418;13.398;2022-07-19T07:17:18;8.05;;;2.50;;
26951;SDS011;14507;52.418;13.398;2022-07-19T07:19:43;7.47;;;2.17;;
26951;SDS011;14507;52.418;13.398;2022-07-19T07:22:09;9.18;;;2.90;;
26951;SDS011;14507;52.418;13.398;2022-07-19T07:24:34;15.50;;;2.60;;
26951;SDS011;14507;52.418;13.398;2022-07-19T07:27:00;6.72;;;2.10;;
26951;SDS011;14507;52.418;13.398;2022-07-19T07:29:26;7.78;;;2.47;;
26951;SDS011;14507;52.418;13.398;2022-07-19T07:31:51;5.85;;;2.25;;
26951;SDS011;14507;52.418;13.398;2022-07-19T07:34:17;9.32;;;2.20;;
26951;SDS011;14507;52.418;13.398;2022-07-19T07:36:43;6.03;;;2.10;;
26951;SDS011;14507;52.418;13.398;2022-07-19T07:39:09;8.90;;;2.17;;
26951;SDS011;14507;52.418;13.398;2022-07-19T07:41:35;7.30;;;2.00;;
26951;SDS011;14507;52.418;13.398;2022-07-19T07:44:01;7.10;;;2.08;;
26951;SDS011;14507;52.418;13.398;2022-07-19T07:46:27;8.35;;;2.10;;
26951;SDS011;14507;52.418;13.398;2022-07-19T07:48:53;8.13;;;2.17;;
26951;SDS011;14507;52.418;13.398;2022-07-19T07:51:18;6.70;;;2.00;;
26951;SDS011;14507;52.418;13.398;2022-07-19T07:53:44;5.50;;;2.38;;
26951;SDS011;14507;52.418;13.398;2022-07-19T07:56:10;6.93;;;1.98;;
26951;SDS011;14507;52.418;13.398;2022-07-19T07:58:38;4.63;;;1.73;;
26951;SDS011;14507;52.418;13.398;2022-07-19T08:01:04;11.70;;;2.13;;
26951;SDS011;14507;52.418;13.398;2022-07-19T08:03:29;6.70;;;2.10;;
26951;SDS011;14507;52.418;13.398;2022-07-19T08:05:55;6.03;;;2.65;;
26951;SDS011;14507;52.418;13.398;2022-07-19T08:08:23;6.90;;;2.22;;
26951;SDS011;14507;52.418;13.398;2022-07-19T08:10:51;4.70;;;2.20;;
26951;SDS011;14507;52.418;13.398;2022-07-19T08:13:20;12.63;;;3.03;;
26951;SDS011;14507;52.418;13.398;2022-07-19T08:15:46;7.93;;;2.33;;
26951;SDS011;14507;52.418;13.398;2022-07-19T08:18:12;10.80;;;2.25;;
26951;SDS011;14507;52.418;13.398;2022-07-19T08:20:37;8.10;;;2.30;;
26951;SDS011;14507;52.418;13.398;2022-07-19T08:23:03;7.93;;;2.20;;
26951;SDS011;14507;52.418;13.398;2022-07-19T08:25:28;8.23;;;1.92;;
26951;SDS011;14507;52.418;13.398;2022-07-19T08:27:54;5.00;;;2.13;;
26951;SDS011;14507;52.418;13.398;2022-07-19T08:30:20;6.45;;;1.98;;
26951;SDS011;14507;52.418;13.398;2022-07-19T08:32:46;6.13;;;2.05;;
26951;SDS011;14507;52.418;13.398;2022-07-19T08:35:11;7.38;;;2.08;;
26951;SDS011;14507;52.418;13.398;2022-07-19T08:37:37;8.57;;;1.98;;
26951;SDS011;14507;52.418;13.398;2022-07-19T08:40:04;8.15;;;1.92;;
26951;SDS011;14507;52.418;13.398;2022-07-19T08:42:31;10.52;;;1.92;;
26951;SDS011;14507;52.418;13.398;2022-07-19T08:44:59;10.45;;;2.13;;
26951;SDS011;14507;52.418;13.398;2022-07-19T08:47:25;5.13;;;1.80;;
26951;SDS011;14507;52.418;13.398;2022-07-19T08:49:52;5.95;;;1.88;;
26951;SDS011;14507;52.418;13.398;2022-07-19T08:52:18;4.95;;;1.70;;
26951;SDS011;14507;52.418;13.398;2022-07-19T08:54:44;8.50;;;1.77;;
26951;SDS011;14507;52.418;13.398;2022-07-19T08:57:10;6.53;;;2.10;;
26951;SDS011;14507;52.418;13.398;2022-07-19T08:59:54;7.10;;;2.00;;
26951;SDS011;14507;52.418;13.398;2022-07-19T09:02:20;3.28;;;1.60;;
26951;SDS011;14507;52.418;13.398;2022-07-19T09:04:58;9.15;;;2.13;;
26951;SDS011;14507;52.418;13.398;2022-07-19T09:07:32;3.83;;;1.63;;
26951;SDS011;14507;52.418;13.398;2022-07-19T09:20:49;7.38;;;1.85;;
26951;SDS011;14507;52.418;13.398;2022-07-19T09:23:16;4.78;;;1.77;;
26951;SDS011;14507;52.418;13.398;2022-07-19T09:25:43;8.38;;;2.00;;
26951;SDS011;14507;52.418;13.398;2022-07-19T09:28:11;6.55;;;2.08;;
26951;SDS011;14507;52.418;13.398;2022-07-19T09:30:38;5.18;;;1.85;;
26951;SDS011;14507;52.418;13.398;2022-07-19T09:33:10;8.63;;;2.40;;
26951;SDS011;14507;52.418;13.398;2022-07-19T09:35:37;5.38;;;1.77;;
26951;SDS011;14507;52.418;13.398;2022-07-19T09:38:29;7.70;;;2.00;;
26951;SDS011;14507;52.418;13.398;2022-07-19T09:43:54;10.73;;;2.15;;
26951;SDS011;14507;52.418;13.398;2022-07-19T09:49:02;8.32;;;1.92;;
26951;SDS011;14507;52.418;13.398;2022-07-19T09:51:44;4.23;;;1.80;;
26951;SDS011;14507;52.418;13.398;2022-07-19T09:54:16;4.47;;;1.80;;
26951;SDS011;14507;52.418;13.398;2022-07-19T09:56:44;9.48;;;2.05;;
26951;SDS011;14507;52.418;13.398;2022-07-19T09:59:10;5.90;;;2.05;;
26951;SDS011;14507;52.418;13.398;2022-07-19T10:01:37;7.35;;;2.00;;
26951;SDS011;14507;52.418;13.398;2022-07-19T10:04:07;8.50;;;2.33;;
26951;SDS011;14507;52.418;13.398;2022-07-19T10:06:38;5.90;;;2.10;;
26951;SDS011;14507;52.418;13.398;2022-07-19T10:09:06;6.57;;;2.15;;
26951;SDS011;14507;52.418;13.398;2022-07-19T10:11:33;6.30;;;2.08;;
26951;SDS011;14507;52.418;13.398;2022-07-19T10:14:00;7.68;;;2.03;;
26951;SDS011;14507;52.418;13.398;2022-07-19T10:16:35;4.50;;;1.98;;
26951;SDS011;14507;52.418;13.398;2022-07-19T10:19:33;6.10;;;2.25;;
26951;SDS011;14507;52.418;13.398;2022-07-19T10:21:59;5.53;;;1.88;;
26951;SDS011;14507;52.418;13.398;2022-07-19T10:25:06;8.65;;;1.67;;
26951;SDS011;14507;52.418;13.398;2022-07-19T10:27:33;8.52;;;2.10;;
26951;SDS011;14507;52.418;13.398;2022-07-19T10:32:32;2.88;;;1.70;;
26951;SDS011;14507;52.418;13.398;2022-07-19T10:35:15;6.32;;;1.92;;
26951;SDS011;14507;52.418;13.398;2022-07-19T10:37:47;4.30;;;1.90;;
26951;SDS011;14507;52.418;13.398;2022-07-19T10:40:13;4.88;;;1.95;;
26951;SDS011;14507;52.418;13.398;2022-07-19T10:45:31;4.38;;;1.65;;
26951;SDS011;14507;52.418;13.398;2022-07-19T10:47:58;4.78;;;1.80;;
26951;SDS011;14507;52.418;13.398;2022-07-19T10:50:51;4.95;;;1.80;;
26951;SDS011;14507;52.418;13.398;2022-07-19T10:56:16;7.00;;;1.90;;
26951;SDS011;14507;52.418;13.398;2022-07-19T10:59:03;9.02;;;1.83;;
26951;SDS011;14507;52.418;13.398;2022-07-19T11:01:33;4.80;;;1.90;;
26951;SDS011;14507;52.418;13.398;2022-07-19T11:06:46;5.97;;;2.03;;
26951;SDS011;14507;52.418;13.398;2022-07-19T11:09:12;5.15;;;1.75;;
26951;SDS011;14507;52.418;13.398;2022-07-19T11:11:38;4.10;;;1.83;;
26951;SDS011;14507;52.418;13.398;2022-07-19T11:14:03;3.80;;;1.77;;
26951;SDS011;14507;52.418;13.398;2022-07-19T11:16:29;4.30;;;1.30;;
26951;SDS011;14507;52.418;13.398;2022-07-19T11:19:05;3.83;;;1.80;;
26951;SDS011;14507;52.418;13.398;2022-07-19T11:21:32;4.70;;;1.80;;
26951;SDS011;14507;52.418;13.398;2022-07-19T11:24:00;6.15;;;1.75;;
26951;SDS011;14507;52.418;13.398;2022-07-19T11:26:26;2.67;;;1.40;;
26951;SDS011;14507;52.418;13.398;2022-07-19T11:29:03;4.07;;;1.65;;
26951;SDS011;14507;52.418;13.398;2022-07-19T11:31:28;3.95;;;1.85;;
26951;SDS011;14507;52.418;13.398;2022-07-19T11:33:55;6.13;;;2.00;;
26951;SDS011;14507;52.418;13.398;2022-07-19T11:36:21;5.20;;;1.63;;
26951;SDS011;14507;52.418;13.398;2022-07-19T11:38:49;4.07;;;1.50;;
26951;SDS011;14507;52.418;13.398;2022-07-19T11:41:21;4.45;;;1.38;;
26951;SDS011;14507;52.418;13.398;2022-07-19T11:44:07;2.63;;;1.42;;
26951;SDS011;14507;52.418;13.398;2022-07-19T11:49:03;4.85;;;1.90;;
26951;SDS011;14507;52.418;13.398;2022-07-19T11:51:30;5.53;;;1.58;;
26951;SDS011;14507;52.418;13.398;2022-07-19T11:53:57;10.40;;;1.70;;
26951;SDS011;14507;52.418;13.398;2022-07-19T11:56:28;4.95;;;1.60;;
26951;SDS011;14507;52.418;13.398;2022-07-19T11:58:56;7.88;;;1.90;;
26951;SDS011;14507;52.418;13.398;2022-07-19T12:01:25;5.40;;;1.80;;
26951;SDS011;14507;52.418;13.398;2022-07-19T12:03:57;5.47;;;1.77;;
26951;SDS011;14507;52.418;13.398;2022-07-19T12:06:37;3.85;;;1.88;;
26951;SDS011;14507;52.418;13.398;2022-07-19T12:09:04;2.78;;;1.52;;
26951;SDS011;14507;52.418;13.398;2022-07-19T12:11:36;4.10;;;1.75;;
26951;SDS011;14507;52.418;13.398;2022-07-19T12:19:41;3.50;;;2.10;;
26951;SDS011;14507;52.418;13.398;2022-07-19T12:24:54;7.80;;;2.42;;
26951;SDS011;14507;52.418;13.398;2022-07-19T12:27:19;6.47;;;2.05;;
26951;SDS011;14507;52.418;13.398;2022-07-19T12:29:46;5.20;;;1.70;;
26951;SDS011;14507;52.418;13.398;2022-07-19T12:32:34;4.82;;;1.90;;
26951;SDS011;14507;52.418;13.398;2022-07-19T12:35:02;4.60;;;2.30;;
26951;SDS011;14507;52.418;13.398;2022-07-19T12:37:29;4.53;;;2.05;;
26951;SDS011;14507;52.418;13.398;2022-07-19T12:45:20;3.72;;;1.83;;
26951;SDS011;14507;52.418;13.398;2022-07-19T12:47:48;4.57;;;1.60;;
26951;SDS011;14507;52.418;13.398;2022-07-19T12:50:21;3.55;;;1.85;;
26951;SDS011;14507;52.418;13.398;2022-07-19T12:52:50;6.90;;;1.90;;
26951;SDS011;14507;52.418;13.398;2022-07-19T12:55:18;6.35;;;1.98;;
26951;SDS011;14507;52.418;13.398;2022-07-19T12:57:46;5.20;;;2.20;;
26951;SDS011;14507;52.418;13.398;2022-07-19T13:00:13;5.85;;;1.92;;
26951;SDS011;14507;52.418;13.398;2022-07-19T13:02:40;11.02;;;1.80;;
26951;SDS011;14507;52.418;13.398;2022-07-19T13:05:05;4.78;;;2.03;;
26951;SDS011;14507;52.418;13.398;2022-07-19T13:07:31;8.35;;;2.30;;
26951;SDS011;14507;52.418;13.398;2022-07-19T13:09:57;5.85;;;1.90;;
26951;SDS011;14507;52.418;13.398;2022-07-19T13:12:22;4.63;;;2.00;;
26951;SDS011;14507;52.418;13.398;2022-07-19T13:14:48;5.72;;;2.17;;
26951;SDS011;14507;52.418;13.398;2022-07-19T13:17:13;5.20;;;1.80;;
26951;SDS011;14507;52.418;13.398;2022-07-19T13:19:39;7.13;;;2.17;;
26951;SDS011;14507;52.418;13.398;2022-07-19T13:22:05;5.47;;;2.40;;
26951;SDS011;14507;52.418;13.398;2022-07-19T13:24:31;5.72;;;2.17;;
26951;SDS011;14507;52.418;13.398;2022-07-19T13:26:58;5.40;;;2.00;;
26951;SDS011;14507;52.418;13.398;2022-07-19T13:29:23;5.18;;;1.88;;
26951;SDS011;14507;52.418;13.398;2022-07-19T13:31:49;4.03;;;2.10;;
26951;SDS011;14507;52.418;13.398;2022-07-19T13:34:15;8.02;;;2.35;;
26951;SDS011;14507;52.418;13.398;2022-07-19T13:36:41;5.85;;;2.35;;
26951;SDS011;14507;52.418;13.398;2022-07-19T13:39:07;4.63;;;2.13;;
26951;SDS011;14507;52.418;13.398;2022-07-19T13:41:34;4.50;;;2.25;;
26951;SDS011;14507;52.418;13.398;2022-07-19T13:44:01;4.18;;;2.03;;
26951;SDS011;14507;52.418;13.398;2022-07-19T13:46:27;5.20;;;2.70;;
26951;SDS011;14507;52.418;13.398;2022-07-19T13:48:53;8.35;;;2.08;;
26951;SDS011;14507;52.418;13.398;2022-07-19T13:51:18;10.93;;;2.50;;
26951;SDS011;14507;52.418;13.398;2022-07-19T13:53:44;5.97;;;2.40;;
26951;SDS011;14507;52.418;13.398;2022-07-19T13:56:10;3.55;;;1.83;;
26951;SDS011;14507;52.418;13.398;2022-07-19T13:58:35;5.38;;;2.22;;
26951;SDS011;14507;52.418;13.398;2022-07-19T14:01:01;5.65;;;1.98;;
26951;SDS011;14507;52.418;13.398;2022-07-19T14:03:27;4.95;;;2.17;;
26951;SDS011;14507;52.418;13.398;2022-07-19T14:05:52;4.90;;;2.30;;
26951;SDS011;14507;52.418;13.398;2022-07-19T14:08:18;4.60;;;2.10;;
26951;SDS011;14507;52.418;13.398;2022-07-19T14:10:43;4.35;;;1.85;;
26951;SDS011;14507;52.418;13.398;2022-07-19T14:13:09;4.78;;;2.05;;
26951;SDS011;14507;52.418;13.398;2022-07-19T14:15:35;5.70;;;2.10;;
26951;SDS011;14507;52.418;13.398;2022-07-19T14:18:01;5.22;;;2.22;;
26951;SDS011;14507;52.418;13.398;2022-07-19T14:20:27;4.10;;;1.75;;
26951;SDS011;14507;52.418;13.398;2022-07-19T14:22:52;5.88;;;1.80;;
26951;SDS011;14507;52.418;13.398;2022-07-19T14:25:18;4.00;;;1.80;;
26951;SDS011;14507;52.418;13.398;2022-07-19T14:27:45;4.32;;;1.73;;
26951;SDS011;14507;52.418;13.398;2022-07-19T14:30:11;5.72;;;1.63;;
26951;SDS011;14507;52.418;13.398;2022-07-19T14:32:36;6.03;;;1.80;;
26951;SDS011;14507;52.418;13.398;2022-07-19T14:35:02;3.92;;;1.63;;
26951;SDS011;14507;52.418;13.398;2022-07-19T14:37:28;4.05;;;1.98;;
26951;SDS011;14507;52.418;13.398;2022-07-19T14:39:54;4.80;;;1.88;;
26951;SDS011;14507;52.418;13.398;2022-07-19T14:42:19;6.85;;;1.73;;
26951;SDS011;14507;52.418;13.398;2022-07-19T14:44:45;4.68;;;1.77;;
26951;SDS011;14507;52.418;13.398;2022-07-19T14:47:11;5.70;;;2.10;;
26951;SDS011;14507;52.418;13.398;2022-07-19T14:49:37;6.57;;;2.33;;
26951;SDS011;14507;52.418;13.398;2022-07-19T14:52:03;5.90;;;2.10;;
26951;SDS011;14507;52.418;13.398;2022-07-19T14:54:30;4.03;;;1.63;;
26951;SDS011;14507;52.418;13.398;2022-07-19T14:56:55;4.57;;;1.70;;
26951;SDS011;14507;52.418;13.398;2022-07-19T14:59:21;6.25;;;1.95;;
26951;SDS011;14507;52.418;13.398;2022-07-19T15:01:48;4.13;;;2.00;;
26951;SDS011;14507;52.418;13.398;2022-07-19T15:04:15;4.47;;;1.75;;
26951;SDS011;14507;52.418;13.398;2022-07-19T15:06:41;5.35;;;1.90;;
26951;SDS011;14507;52.418;13.398;2022-07-19T15:09:06;6.68;;;1.75;;
26951;SDS011;14507;52.418;13.398;2022-07-19T15:11:32;4.60;;;1.85;;
26951;SDS011;14507;52.418;13.398;2022-07-19T15:14:01;8.27;;;2.17;;
26951;SDS011;14507;52.418;13.398;2022-07-19T15:16:26;8.38;;;2.20;;